Lordville, New York
Current Conditions -  °F | °C
As of 10:15 AM on Thursday 30 Oct 2014 (Local Time) from KMSV Reporting Station
Broken Clouds Broken Clouds  
Wind Chill: 40°   Ceiling: 3400
Heat Index: 45°   Visibility: 10mi
Dew Point: 37°   Wind: 9mph
Humidity: 76%   Direction: 310°NW
Pressure: 30.01"   Gusts: 20mph
Location:  41.9099°N, 75.1815°W
Report Text: KMSV 301415Z AUTO 31008G17KT 10SM FEW026 BKN034 07/03 A3001 RMK AO1
Loading
Personal Weather Stations






























Interactive Weather Map
Tropical Storm Tracking
New forecast layout! Learn more

10-Day Weather Forecast

Advertisements
Track Severe Weather on mobile